Time;durP1;ratioP1;P1;durP2;ratioP2;P2;SDS_P1;SDS_P2;PMS_P1;PMS_P2;Temp;Humidity;BMP_temperature;BMP_pressure;BME280_temperature;BME280_humidity;BME280_pressure;Samples;Min_cycle;Max_cycle;Signal;HPM_P1;HPM_P2
2022/04/14 00:01:12;;;;;;;36.55;24.25;;;;;;;;;;4390966;32;20315;-72
2022/04/14 00:03:38;;;;;;;;;;;;;;;;;;4401452;32;20031;-72
2022/04/14 00:06:03;;;;;;;32.47;22.75;;;;;;;;;;4407023;32;19938;-72
2022/04/14 00:08:29;;;;;;;;;;;;;;;;;;4392639;32;20030;-72
2022/04/14 00:10:54;;;;;;;35.88;23.58;;;;;;;;;;4392675;32;19950;-71
2022/04/14 00:13:19;;;;;;;;;;;;;;;;;;4405554;32;20069;-72
2022/04/14 00:15:44;;;;;;;38.25;23.87;;;;;;;;;;4378799;32;19957;-72
2022/04/14 00:18:09;;;;;;;37.55;25.05;;;;;;;;;;4390853;32;20027;-71
2022/04/14 00:20:34;;;;;;;;;;;;;;;;;;4392210;32;20107;-71
2022/04/14 00:22:59;;;;;;;36.05;24.08;;;;;;;;;;4390830;32;19938;-71
2022/04/14 00:25:25;;;;;;;;;;;;;;;;;;4377361;32;20027;-73
2022/04/14 00:27:50;;;;;;;40.15;26.23;;;;;;;;;;4391484;32;19938;-73
2022/04/14 00:30:15;;;;;;;;;;;;;;;;;;4405956;32;20045;-72
2022/04/14 00:32:40;;;;;;;38.45;25.60;;;;;;;;;;4403292;32;19948;-72
2022/04/14 00:35:06;;;;;;;;;;;;;;;;;;4406530;32;20164;-70
2022/04/14 00:37:31;;;;;;;38.53;26.33;;;;;;;;;;4378177;32;19942;-72
2022/04/14 00:39:56;;;;;;;;;;;;;;;;;;4391012;32;20069;-72
2022/04/14 00:42:21;;;;;;;40.50;26.48;;;;;;;;;;4391268;32;19956;-71
2022/04/14 00:44:46;;;;;;;;;;;;;;;;;;4390680;32;20333;-71
2022/04/14 00:47:12;;;;;;;36.38;25.77;;;;;;;;;;4390695;32;19945;-71
2022/04/14 00:49:37;;;;;;;;;;;;;;;;;;4377045;32;20123;-71
2022/04/14 00:52:03;;;;;;;46.20;29.42;;;;;;;;;;4391014;32;19979;-73
2022/04/14 00:54:31;;;;;;;39.10;28.27;;;;;;;;;;4390695;32;20111;-71
2022/04/14 00:56:58;;;;;;;42.92;27.35;;;;;;;;;;4392244;32;20125;-72
2022/04/14 00:59:23;;;;;;;42.20;28.48;;;;;;;;;;4377208;32;20034;-72
2022/04/14 01:01:48;;;;;;;36.72;27.13;;;;;;;;;;4391102;32;20027;-70
2022/04/14 01:04:13;;;;;;;;;;;;;;;;;;4407227;32;20405;-70
2022/04/14 01:06:39;;;;;;;40.03;27.02;;;;;;;;;;4406136;32;19960;-70
2022/04/14 01:09:19;;;;;;;;;;;;;;;;;;4393428;32;20130;-71
2022/04/14 01:11:51;;;;;;;38.53;25.95;;;;;;;;;;4390571;32;19983;-71
2022/04/14 01:14:29;;;;;;;46.42;31.48;;;;;;;;;;4392020;32;20102;-72
2022/04/14 01:16:55;;;;;;;44.45;28.95;;;;;;;;;;4391445;32;20038;-73
2022/04/14 01:19:21;;;;;;;54.38;34.22;;;;;;;;;;4390628;32;20034;-72
2022/04/14 01:21:52;;;;;;;65.80;37.00;;;;;;;;;;4390825;32;20351;-72
2022/04/14 01:24:18;;;;;;;52.05;32.38;;;;;;;;;;4377580;32;20081;-71
2022/04/14 01:26:43;;;;;;;;;;;;;;;;;;4390597;32;20027;-71
2022/04/14 01:29:19;;;;;;;48.10;30.12;;;;;;;;;;4390762;32;19981;-71
2022/04/14 01:31:44;;;;;;;47.65;30.30;;;;;;;;;;4392145;32;20030;-70
2022/04/14 01:34:09;;;;;;;;;;;;;;;;;;4391085;32;20088;-70
2022/04/14 01:36:34;;;;;;;46.25;30.70;;;;;;;;;;4391490;32;19938;-71
2022/04/14 01:38:59;;;;;;;50.17;30.45;;;;;;;;;;4389680;32;20046;-72
2022/04/14 01:41:24;;;;;;;;;;;;;;;;;;4376784;32;20030;-72
2022/04/14 01:43:49;;;;;;;47.03;30.12;;;;;;;;;;4377196;32;20296;-71
2022/04/14 01:46:14;;;;;;;;;;;;;;;;;;4377688;32;20131;-72
2022/04/14 01:48:40;;;;;;;46.95;29.33;;;;;;;;;;4391509;32;19971;-72
2022/04/14 01:51:05;;;;;;;;;;;;;;;;;;4406503;32;20053;-71
2022/04/14 01:53:30;;;;;;;45.67;29.12;;;;;;;;;;4395765;32;19999;-71
2022/04/14 01:55:55;;;;;;;;;;;;;;;;;;4390015;32;20098;-71
2022/04/14 01:58:20;;;;;;;43.45;28.48;;;;;;;;;;4389812;32;20304;-71
2022/04/14 02:00:45;;;;;;;;;;;;;;;;;;4390380;32;20030;-72
2022/04/14 02:03:11;;;;;;;42.08;27.60;;;;;;;;;;4406398;32;19941;-72
2022/04/14 02:05:36;;;;;;;;;;;;;;;;;;4405170;32;20030;-71
2022/04/14 02:08:02;;;;;;;37.15;25.35;;;;;;;;;;4406821;32;20291;-71
2022/04/14 02:10:27;;;;;;;;;;;;;;;;;;4406387;32;20049;-71
2022/04/14 02:12:52;;;;;;;38.13;25.12;;;;;;;;;;4407043;32;19981;-71
2022/04/14 02:15:18;;;;;;;;;;;;;;;;;;4399451;32;20077;-71
2022/04/14 02:17:43;;;;;;;40.40;27.50;;;;;;;;;;4392760;32;19957;-71
2022/04/14 02:20:09;;;;;;;37.97;28.12;;;;;;;;;;4393487;32;20031;-71
2022/04/14 02:22:34;;;;;;;;;;;;;;;;;;4393349;32;20039;-72
2022/04/14 02:24:59;;;;;;;43.05;28.65;;;;;;;;;;4393235;32;19934;-72
2022/04/14 02:27:25;;;;;;;42.30;27.67;;;;;;;;;;4380557;32;20321;-71
2022/04/14 02:29:50;;;;;;;;;;;;;;;;;;4401010;32;20077;-72
2022/04/14 02:32:15;;;;;;;40.25;26.23;;;;;;;;;;4407769;32;19957;-71
2022/04/14 02:34:40;;;;;;;;;;;;;;;;;;4408030;32;20050;-72
2022/04/14 02:37:05;;;;;;;38.88;27.42;;;;;;;;;;4407464;32;19934;-72
2022/04/14 02:39:31;;;;;;;;;;;;;;;;;;4407514;32;20091;-72
2022/04/14 02:41:56;;;;;;;47.80;30.95;;;;;;;;;;4408533;32;19965;-71
2022/04/14 02:44:21;;;;;;;;;;;;;;;;;;4409132;32;20027;-72
2022/04/14 02:46:46;;;;;;;46.47;32.22;;;;;;;;;;4407412;32;19937;-71
2022/04/14 02:49:11;;;;;;;;;;;;;;;;;;4409144;32;20026;-72
2022/04/14 02:51:36;;;;;;;;;;;;;;;;;;4406546;32;19946;-72
2022/04/14 02:54:01;;;;;;;;;;;;;;;;;;4392476;32;20279;-72
2022/04/14 02:56:26;;;;;;;;;;;;;;;;;;4378960;32;19942;-72
2022/04/14 02:58:51;;;;;;;;;;;;;;;;;;4392717;32;19941;-72
2022/04/14 03:01:17;;;;;;;;;;;;;;;;;;4397773;32;20271;-71
2022/04/14 03:03:42;;;;;;;;;;;;;;;;;;4408228;32;19933;-72
2022/04/14 03:06:07;;;;;;;;;;;;;;;;;;4407384;32;19937;-72
2022/04/14 03:08:32;;;;;;;;;;;;;;;;;;4407486;32;19941;-71
2022/04/14 03:10:58;;;;;;;;;;;;;;;;;;4407241;32;20006;-71
2022/04/14 03:13:23;;;;;;;;;;;;;;;;;;4409178;32;20371;-70
2022/04/14 03:15:49;;;;;;;;;;;;;;;;;;4402756;32;19969;-72
2022/04/14 03:18:14;;;;;;;;;;;;;;;;;;4393046;32;19937;-71
2022/04/14 03:20:39;;;;;;;;;;;;;;;;;;4403699;32;19948;-72
2022/04/14 03:23:04;;;;;;;;;;;;;;;;;;4396789;32;20370;-71
2022/04/14 03:25:29;;;;;;;;;;;;;;;;;;4391548;32;19954;-71
2022/04/14 03:27:54;;;;;;;;;;;;;;;;;;4392495;32;19941;-72
2022/04/14 03:30:19;;;;;;;;;;;;;;;;;;4391957;32;19934;-72
2022/04/14 03:32:44;;;;;;;;;;;;;;;;;;4393745;32;19992;-72
2022/04/14 03:35:09;;;;;;;;;;;;;;;;;;4393338;32;20370;-72
2022/04/14 03:37:35;;;;;;;;;;;;;;;;;;4379132;32;19938;-71
2022/04/14 03:40:00;;;;;;;;;;;;;;;;;;4391360;32;19935;-72
2022/04/14 03:42:25;;;;;;;;;;;;;;;;;;4392227;32;20290;-73
2022/04/14 03:44:50;;;;;;;;;;;;;;;;;;4402270;32;19976;-72
2022/04/14 03:47:15;;;;;;;;;;;;;;;;;;4402778;32;19938;-72
2022/04/14 03:49:40;;;;;;;;;;;;;;;;;;4392517;32;19942;-72
2022/04/14 03:52:05;;;;;;;;;;;;;;;;;;4391835;32;19938;-72
2022/04/14 03:54:30;;;;;;;;;;;;;;;;;;4377813;32;19937;-73
2022/04/14 03:56:56;;;;;;;;;;;;;;;;;;4392355;32;19937;-71
2022/04/14 03:59:21;;;;;;;;;;;;;;;;;;4391472;32;19948;-72
2022/04/14 04:01:46;;;;;;;;;;;;;;;;;;4391616;32;19942;-72
2022/04/14 04:04:12;;;;;;;;;;;;;;;;;;4391944;32;20299;-70
2022/04/14 04:06:37;;;;;;;;;;;;;;;;;;4391904;32;20342;-73
2022/04/14 04:09:02;;;;;;;;;;;;;;;;;;4391695;32;20288;-73
2022/04/14 04:11:27;;;;;;;;;;;;;;;;;;4377445;32;19957;-72
2022/04/14 04:13:52;;;;;;;;;;;;;;;;;;4391728;32;19934;-72
2022/04/14 04:16:17;;;;;;;;;;;;;;;;;;4392199;32;19937;-73
2022/04/14 04:18:43;;;;;;;;;;;;;;;;;;4392491;32;19938;-73
2022/04/14 04:21:08;;;;;;;;;;;;;;;;;;4392710;32;19975;-72
2022/04/14 04:23:33;;;;;;;;;;;;;;;;;;4392091;32;19941;-72
2022/04/14 04:25:58;;;;;;;;;;;;;;;;;;4392054;32;20379;-71
2022/04/14 04:28:30;;;;;;;;;;;;;;;;;;4392451;32;19942;-75
2022/04/14 04:30:55;;;;;;;;;;;;;;;;;;4391373;32;20320;-70
2022/04/14 04:33:20;;;;;;;;;;;;;;;;;;4377323;32;20361;-71
2022/04/14 04:35:45;;;;;;;;;;;;;;;;;;4392220;32;19952;-72
2022/04/14 04:38:10;;;;;;;;;;;;;;;;;;4391845;32;19947;-72
2022/04/14 04:40:35;;;;;;;;;;;;;;;;;;4390676;32;19985;-72
2022/04/14 04:43:00;;;;;;;;;;;;;;;;;;4391163;32;19980;-73
2022/04/14 04:45:25;;;;;;;;;;;;;;;;;;4395272;32;19938;-72
2022/04/14 04:47:50;;;;;;;;;;;;;;;;;;4398259;32;20376;-72
2022/04/14 04:50:16;;;;;;;;;;;;;;;;;;4406234;32;19968;-74
2022/04/14 04:52:41;;;;;;;;;;;;;;;;;;4406129;32;19944;-73
2022/04/14 04:55:06;;;;;;;;;;;;;;;;;;4399123;32;20282;-75
2022/04/14 04:57:31;;;;;;;;;;;;;;;;;;4400047;32;19953;-72
2022/04/14 04:59:56;;;;;;;;;;;;;;;;;;4391142;32;19956;-73
2022/04/14 05:02:21;;;;;;;;;;;;;;;;;;4391233;32;19968;-72
2022/04/14 05:04:46;;;;;;;;;;;;;;;;;;4391993;32;19952;-75
2022/04/14 05:07:12;;;;;;;;;;;;;;;;;;4377593;32;19947;-73
2022/04/14 05:09:38;;;;;;;;;;;;;;;;;;4376976;32;19979;-72
2022/04/14 05:12:04;;;;;;;;;;;;;;;;;;4380680;32;19930;-72
2022/04/14 05:14:29;;;;;;;;;;;;;;;;;;4401825;32;19980;-72
2022/04/14 05:16:54;;;;;;;;;;;;;;;;;;4392003;32;19991;-72
2022/04/14 05:19:19;;;;;;;;;;;;;;;;;;4392061;32;19979;-75
2022/04/14 05:21:46;;;;;;;;;;;;;;;;;;4387097;32;20307;-73
2022/04/14 05:24:11;;;;;;;;;;;;;;;;;;4405770;32;19967;-74
2022/04/14 05:26:36;;;;;;;;;;;;;;;;;;4391462;32;20311;-70
2022/04/14 05:29:01;;;;;;;;;;;;;;;;;;4403075;32;19934;-72
2022/04/14 05:31:28;;;;;;;;;;;;;;;;;;4390667;32;19941;-76
2022/04/14 05:33:54;;;;;;;;;;;;;;;;;;4389964;32;20276;-72
2022/04/14 05:36:19;;;;;;;;;;;;;;;;;;4391312;32;20020;-74
2022/04/14 05:38:44;;;;;;;;;;;;;;;;;;4390903;32;20362;-70
2022/04/14 05:41:09;;;;;;;;;;;;;;;;;;4390576;32;19934;-73
2022/04/14 05:43:34;;;;;;;;;;;;;;;;;;4390982;32;19942;-76
2022/04/14 05:45:59;;;;;;;;;;;;;;;;;;4392503;32;19996;-71
2022/04/14 05:48:25;;;;;;;;;;;;;;;;;;4403275;32;19937;-73
2022/04/14 05:50:50;;;;;;;;;;;;;;;;;;4405316;32;19967;-73
2022/04/14 05:53:15;;;;;;;;;;;;;;;;;;4405228;32;19952;-73
2022/04/14 05:55:40;;;;;;;;;;;;;;;;;;4405118;32;19951;-75
2022/04/14 05:58:05;;;;;;;;;;;;;;;;;;4393785;32;19942;-71
2022/04/14 06:00:30;;;;;;;;;;;;;;;;;;4389653;32;19944;-74
2022/04/14 06:02:56;;;;;;;;;;;;;;;;;;4390120;32;19964;-73
2022/04/14 06:05:22;;;;;;;;;;;;;;;;;;4389987;32;20294;-75
2022/04/14 06:07:47;;;;;;;;;;;;;;;;;;4375968;32;19991;-75
2022/04/14 06:10:12;;;;;;;;;;;;;;;;;;4390143;32;19938;-76
2022/04/14 06:12:37;;;;;;;;;;;;;;;;;;4389747;32;20009;-78
2022/04/14 06:15:02;;;;;;;;;;;;;;;;;;4396571;32;20315;-81
2022/04/14 06:17:27;;;;;;;;;;;;;;;;;;4408315;32;20022;-80
2022/04/14 06:19:52;;;;;;;;;;;;;;;;;;4405576;32;19941;-76
2022/04/14 06:22:17;;;;;;;;;;;;;;;;;;4404824;32;19938;-79
2022/04/14 06:24:42;;;;;;;;;;;;;;;;;;4403707;32;20007;-78
2022/04/14 06:27:08;;;;;;;;;;;;;;;;;;4391962;32;19934;-75
2022/04/14 06:29:33;;;;;;;;;;;;;;;;;;4390078;32;20299;-76
2022/04/14 06:31:58;;;;;;;;;;;;;;;;;;4392915;32;19933;-75
2022/04/14 06:34:23;;;;;;;;;;;;;;;;;;4403090;32;19952;-78
2022/04/14 06:36:49;;;;;;;;;;;;;;;;;;4410373;32;20282;-75
2022/04/14 06:39:14;;;;;;;;;;;;;;;;;;4404418;32;20343;-76
2022/04/14 06:41:39;;;;;;;;;;;;;;;;;;4405113;32;19941;-77
2022/04/14 06:44:04;;;;;;;;;;;;;;;;;;4400172;32;19963;-75
2022/04/14 06:46:29;;;;;;;;;;;;;;;;;;4389583;32;19938;-78
2022/04/14 06:48:54;;;;;;;;;;;;;;;;;;4388640;32;19964;-75
2022/04/14 06:51:20;;;;;;;;;;;;;;;;;;4389811;32;19971;-76
2022/04/14 06:53:46;;;;;;;;;;;;;;;;;;4389642;32;19948;-77
2022/04/14 06:56:12;;;;;;;;;;;;;;;;;;4389433;32;19958;-78
2022/04/14 06:58:37;;;;;;;;;;;;;;;;;;4389548;32;20232;-78
2022/04/14 07:01:02;;;;;;;;;;;;;;;;;;4378054;32;20310;-76
2022/04/14 07:03:27;;;;;;;;;;;;;;;;;;4392670;32;19934;-76
2022/04/14 07:05:54;;;;;;;;;;;;;;;;;;4379311;32;20312;-79
2022/04/14 07:08:19;;;;;;;;;;;;;;;;;;4392676;32;20028;-77
2022/04/14 07:10:44;;;;;;;;;;;;;;;;;;4393990;32;19946;-80
2022/04/14 07:13:10;;;;;;;;;;;;;;;;;;4378692;32;19938;-76
2022/04/14 07:15:35;;;;;;;;;;;;;;;;;;4392011;32;20000;-75
2022/04/14 07:18:01;;;;;;;;;;;;;;;;;;4407017;32;19954;-74
2022/04/14 07:20:29;;;;;;;;;;;;;;;;;;4407339;32;20326;-77
2022/04/14 07:22:54;;;;;;;;;;;;;;;;;;4393076;32;19945;-75
2022/04/14 07:25:21;;;;;;;;;;;;;;;;;;4408554;32;19975;-74
2022/04/14 07:27:46;;;;;;;;;;;;;;;;;;4406855;32;19945;-77
2022/04/14 07:30:12;;;;;;;;;;;;;;;;;;4408872;32;19948;-75
2022/04/14 07:32:37;;;;;;;;;;;;;;;;;;4407063;32;19951;-78
2022/04/14 07:35:03;;;;;;;;;;;;;;;;;;4406945;32;20311;-74
2022/04/14 07:37:28;;;;;;;;;;;;;;;;;;4392866;32;19961;-74
2022/04/14 07:39:54;;;;;;;;;;;;;;;;;;4406847;32;20001;-76
2022/04/14 07:42:19;;;;;;;;;;;;;;;;;;4407760;32;19976;-76
2022/04/14 07:44:44;;;;;;;;;;;;;;;;;;4408304;32;19933;-75
2022/04/14 07:47:09;;;;;;;;;;;;;;;;;;4406051;32;19980;-77
2022/04/14 07:49:34;;;;;;;;;;;;;;;;;;4407347;32;20252;-79
2022/04/14 07:51:59;;;;;;;;;;;;;;;;;;4406664;32;19937;-75
2022/04/14 07:54:24;;;;;;;;;;;;;;;;;;4406876;32;20272;-79
2022/04/14 07:56:49;;;;;;;;;;;;;;;;;;4392717;32;19941;-75
2022/04/14 07:59:14;;;;;;;;;;;;;;;;;;4406442;32;19945;-78
2022/04/14 08:01:40;;;;;;;;;;;;;;;;;;4407343;32;19934;-75
2022/04/14 08:04:05;;;;;;;;;;;;;;;;;;4406393;32;20315;-76
2022/04/14 08:06:31;;;;;;;;;;;;;;;;;;4406932;32;20023;-75
2022/04/14 08:08:56;;;;;;;;;;;;;;;;;;4407838;32;19938;-75
2022/04/14 08:11:21;;;;;;;;;;;;;;;;;;4406465;32;19985;-75
2022/04/14 08:13:46;;;;;;;;;;;;;;;;;;4407524;32;19938;-76
2022/04/14 08:16:12;;;;;;;;;;;;;;;;;;4406384;32;20322;-76
2022/04/14 08:18:37;;;;;;;;;;;;;;;;;;4391026;32;19942;-76
2022/04/14 08:21:02;;;;;;;;;;;;;;;;;;4391043;32;19938;-76
2022/04/14 08:23:27;;;;;;;;;;;;;;;;;;4390965;32;19942;-78
2022/04/14 08:25:52;;;;;;;;;;;;;;;;;;4393031;32;20296;-77
2022/04/14 08:28:17;;;;;;;;;;;;;;;;;;4390796;32;20271;-81
2022/04/14 08:30:43;;;;;;;;;;;;;;;;;;4392406;32;19953;-77
2022/04/14 08:33:08;;;;;;;;;;;;;;;;;;4391552;32;19972;-76
2022/04/14 08:35:33;;;;;;;;;;;;;;;;;;4392661;32;20267;-77
2022/04/14 08:37:58;;;;;;;;;;;;;;;;;;4392756;32;20181;-74
2022/04/14 08:40:23;;;;;;;;;;;;;;;;;;4391117;32;19948;-76
2022/04/14 08:42:48;;;;;;;;;;;;;;;;;;4392730;32;19952;-76
2022/04/14 08:45:13;;;;;;;;;;;;;;;;;;4377184;32;19937;-80
2022/04/14 08:47:39;;;;;;;;;;;;;;;;;;4388278;32;19948;-75
2022/04/14 08:50:05;;;;;;;;;;;;;;;;;;4406457;32;19950;-75
2022/04/14 08:52:30;;;;;;;;;;;;;;;;;;4405860;32;19948;-79
2022/04/14 08:54:55;;;;;;;;;;;;;;;;;;4406393;32;19934;-75
2022/04/14 08:57:20;;;;;;;;;;;;;;;;;;4406699;32;19937;-79
2022/04/14 08:59:45;;;;;;;;;;;;;;;;;;4406232;32;19996;-79
2022/04/14 09:02:10;;;;;;;;;;;;;;;;;;4406521;32;19953;-76
2022/04/14 09:04:38;;;;;;;;;;;;;;;;;;4407161;32;19951;-75
2022/04/14 09:07:04;;;;;;;;;;;;;;;;;;4405576;32;19986;-77
2022/04/14 09:09:29;;;;;;;;;;;;;;;;;;4405825;32;19930;-77
2022/04/14 09:11:54;;;;;;;;;;;;;;;;;;4406791;32;19933;-79
2022/04/14 09:14:21;;;;;;;;;;;;;;;;;;4407692;32;19969;-78
2022/04/14 09:16:46;;;;;;;;;;;;;;;;;;4405744;32;19979;-77
2022/04/14 09:19:11;;;;;;;;;;;;;;;;;;4405554;32;19941;-80
2022/04/14 09:21:36;;;;;;;;;;;;;;;;;;4405850;32;20329;-77
2022/04/14 09:24:01;;;;;;;;;;;;;;;;;;4405209;32;19942;-80
2022/04/14 09:26:26;;;;;;;;;;;;;;;;;;4405584;32;19971;-75
2022/04/14 09:28:51;;;;;;;;;;;;;;;;;;4406919;32;19981;-77
2022/04/14 09:31:19;;;;;;;;;;;;;;;;;;4405539;32;19953;-76
2022/04/14 09:33:44;;;;;;;;;;;;;;;;;;4405304;32;19949;-79
2022/04/14 09:36:09;;;;;;;;;;;;;;;;;;4405451;32;19945;-82
2022/04/14 09:38:35;;;;;;;;;;;;;;;;;;4405607;32;20193;-80
2022/04/14 09:41:00;;;;;;;;;;;;;;;;;;4405340;32;20239;-77
2022/04/14 09:43:26;;;;;;;;;;;;;;;;;;4405542;32;19952;-79
2022/04/14 09:45:51;;;;;;;;;;;;;;;;;;4405004;32;19942;-76
2022/04/14 09:48:18;;;;;;;;;;;;;;;;;;4405569;32;19933;-78
2022/04/14 09:50:44;;;;;;;;;;;;;;;;;;4405290;32;19938;-78
2022/04/14 09:53:09;;;;;;;;;;;;;;;;;;4404918;32;19993;-81
2022/04/14 09:55:34;;;;;;;;;;;;;;;;;;4404778;32;19963;-78
2022/04/14 09:58:00;;;;;;;;;;;;;;;;;;4391002;32;19992;-77
2022/04/14 10:00:25;;;;;;;;;;;;;;;;;;4404627;32;19980;-75
2022/04/14 10:02:50;;;;;;;;;;;;;;;;;;4405005;32;19987;-77
2022/04/14 10:05:15;;;;;;;;;;;;;;;;;;4405058;32;20284;-78
2022/04/14 10:07:40;;;;;;;;;;;;;;;;;;4404844;32;19968;-75
2022/04/14 10:10:05;;;;;;;;;;;;;;;;;;4404991;32;19933;-77
2022/04/14 10:12:30;;;;;;;;;;;;;;;;;;4405336;32;19937;-76
2022/04/14 10:14:55;;;;;;;;;;;;;;;;;;4405126;32;19947;-74
2022/04/14 10:17:21;;;;;;;;;;;;;;;;;;4404620;32;19941;-77
2022/04/14 10:19:46;;;;;;;;;;;;;;;;;;4392416;32;19933;-76
2022/04/14 10:22:11;;;;;;;;;;;;;;;;;;4404780;32;20217;-76
2022/04/14 10:24:38;;;;;;;;;;;;;;;;;;4405570;32;19938;-79
2022/04/14 10:27:03;;;;;;;;;;;;;;;;;;4404934;32;19948;-76
2022/04/14 10:29:29;;;;;;;;;;;;;;;;;;4405631;32;19941;-75
2022/04/14 10:31:54;;;;;;;;;;;;;;;;;;4390565;32;19973;-75
2022/04/14 10:34:19;;;;;;;;;;;;;;;;;;4391253;32;19938;-77
2022/04/14 10:36:44;;;;;;;;;;;;;;;;;;4393657;32;19986;-76
2022/04/14 10:39:09;;;;;;;;;;;;;;;;;;4407978;32;20276;-74
2022/04/14 10:41:34;;;;;;;;;;;;;;;;;;4409610;32;19979;-77
2022/04/14 10:43:59;;;;;;;;;;;;;;;;;;4407209;32;19946;-74
2022/04/14 10:46:24;;;;;;;;;;;;;;;;;;4401169;32;20040;-76
2022/04/14 10:48:49;;;;;;;;;;;;;;;;;;4393320;32;19945;-78
2022/04/14 10:51:15;;;;;;;;;;;;;;;;;;4393013;32;19938;-78
2022/04/14 10:53:40;;;;;;;;;;;;;;;;;;4392319;32;19990;-77
2022/04/14 10:56:05;;;;;;;;;;;;;;;;;;4392695;32;19938;-77
2022/04/14 10:58:30;;;;;;;;;;;;;;;;;;4392923;32;20272;-77
2022/04/14 11:00:55;;;;;;;;;;;;;;;;;;4391623;32;19937;-77
2022/04/14 11:03:20;;;;;;;;;;;;;;;;;;4392124;32;19938;-77
2022/04/14 11:05:46;;;;;;;;;;;;;;;;;;4392879;32;19938;-77
2022/04/14 11:08:11;;;;;;;;;;;;;;;;;;4391968;32;19948;-77
2022/04/14 11:10:36;;;;;;;;;;;;;;;;;;4391715;32;19934;-76
2022/04/14 11:13:01;;;;;;;;;;;;;;;;;;4391924;32;19948;-81
2022/04/14 11:15:26;;;;;;;;;;;;;;;;;;4392549;32;19942;-77
2022/04/14 11:17:57;;;;;;;;;;;;;;;;;;4378629;32;20251;-77
2022/04/14 11:20:22;;;;;;;;;;;;;;;;;;4392089;32;19996;-75
2022/04/14 11:22:47;;;;;;;;;;;;;;;;;;4392194;32;19938;-76
2022/04/14 11:25:13;;;;;;;;;;;;;;;;;;4391956;32;19934;-81
2022/04/14 11:27:39;;;;;;;;;;;;;;;;;;4378733;32;19980;-80
2022/04/14 11:30:04;;;;;;;;;;;;;;;;;;4391889;32;19952;-80
2022/04/14 11:32:29;;;;;;;;;;;;;;;;;;4378363;32;19938;-79
2022/04/14 11:34:55;;;;;;;;;;;;;;;;;;4391572;32;19934;-78
2022/04/14 11:37:20;;;;;;;;;;;;;;;;;;4391716;32;20248;-76
2022/04/14 11:39:45;;;;;;;;;;;;;;;;;;4392752;32;19938;-77
2022/04/14 11:42:11;;;;;;;;;;;;;;;;;;4392335;32;19987;-78
2022/04/14 11:44:36;;;;;;;;;;;;;;;;;;4392042;32;20267;-77
2022/04/14 11:47:01;;;;;;;;;;;;;;;;;;4391377;32;19930;-79
2022/04/14 11:49:26;;;;;;;;;;;;;;;;;;4391635;32;20346;-76
2022/04/14 11:51:51;;;;;;;;;;;;;;;;;;4379053;32;19946;-79
2022/04/14 11:54:16;;;;;;;;;;;;;;;;;;4391291;32;19957;-77
2022/04/14 11:56:41;;;;;;;;;;;;;;;;;;4391554;32;19976;-75
2022/04/14 11:59:08;;;;;;;;;;;;;;;;;;4378964;32;19948;-78
2022/04/14 12:01:33;;;;;;;;;;;;;;;;;;4392383;32;19934;-77
2022/04/14 12:03:58;;;;;;;;;;;;;;;;;;4391123;32;20373;-77
2022/04/14 12:06:23;;;;;;;;;;;;;;;;;;4391596;32;19963;-77
2022/04/14 12:08:48;;;;;;;;;;;;;;;;;;4377989;32;19980;-78
2022/04/14 12:11:14;;;;;;;;;;;;;;;;;;4391662;32;20014;-77
2022/04/14 12:13:39;;;;;;;;;;;;;;;;;;4378273;32;19937;-76
2022/04/14 12:16:04;;;;;;;;;;;;;;;;;;4396721;32;20361;-78
2022/04/14 12:18:29;;;;;;;;;;;;;;;;;;4407257;32;19979;-75
2022/04/14 12:20:54;;;;;;;;;;;;;;;;;;4407222;32;19942;-78
2022/04/14 12:23:19;;;;;;;;;;;;;;;;;;4405952;32;20087;-78
2022/04/14 12:25:44;;;;;;;;;;;;;;;;;;4406865;32;19971;-75
2022/04/14 12:28:09;;;;;;;;;;;;;;;;;;4392298;32;19938;-76
2022/04/14 12:30:36;;;;;;;;;;;;;;;;;;4406623;32;19937;-78
2022/04/14 12:33:01;;;;;;;;;;;;;;;;;;4406455;32;19933;-79
2022/04/14 12:35:26;;;;;;;;;;;;;;;;;;4407073;32;20006;-78
2022/04/14 12:37:54;;;;;;;;;;;;;;;;;;4408163;32;19933;-77
2022/04/14 12:40:22;;;;;;;;;;;;;;;;;;4393295;32;20370;-79
2022/04/14 12:45:24;;;;;;;5.43;3.37;;;;;;;;;;4492071;31;20171;-83
2022/04/14 12:47:49;;;;;;;7.05;3.87;;;;;;;;;;4461799;32;20032;-82
2022/04/14 12:50:19;;;;;;;7.90;3.67;;;;;;;;;;4462753;32;20037;-80
2022/04/14 12:52:53;;;;;;;7.55;3.25;;;;;;;;;;4463101;32;20146;-80
2022/04/14 12:55:25;;;;;;;4.12;2.85;;;;;;;;;;4465169;32;20021;-83
2022/04/14 12:57:56;;;;;;;7.03;3.67;;;;;;;;;;4464285;32;20109;-84
2022/04/14 13:00:21;;;;;;;5.07;3.45;;;;;;;;;;4462681;32;20021;-80
2022/04/14 13:03:00;;;;;;;5.25;3.65;;;;;;;;;;4464442;32;20061;-78
2022/04/14 13:05:28;;;;;;;8.20;4.07;;;;;;;;;;4438003;32;20017;-78
2022/04/14 13:07:54;;;;;;;4.53;3.40;;;;;;;;;;4464483;32;20497;-80
2022/04/14 13:10:30;;;;;;;5.18;2.92;;;;;;;;;;4464332;32;20068;-81
2022/04/14 13:12:56;;;;;;;10.13;4.75;;;;;;;;;;4465193;32;20074;-81
2022/04/14 13:15:22;;;;;;;8.15;5.28;;;;;;;;;;4466118;32;20394;-81
2022/04/14 13:17:48;;;;;;;10.05;7.20;;;;;;;;;;4480000;32;20020;-82
2022/04/14 13:20:16;;;;;;;9.55;6.03;;;;;;;;;;4465499;32;20047;-78
2022/04/14 13:22:41;;;;;;;10.15;6.10;;;;;;;;;;4467561;32;20045;-77
2022/04/14 13:25:07;;;;;;;8.75;6.12;;;;;;;;;;4475469;32;20091;-78
2022/04/14 13:27:32;;;;;;;6.50;4.90;;;;;;;;;;4464076;32;20025;-82
2022/04/14 13:30:00;;;;;;;8.75;5.35;;;;;;;;;;4463584;32;20405;-80
2022/04/14 13:32:25;;;;;;;6.70;5.32;;;;;;;;;;4465032;32;20045;-77
2022/04/14 13:34:50;;;;;;;7.80;5.53;;;;;;;;;;4465705;32;20026;-79
2022/04/14 13:37:15;;;;;;;7.97;5.68;;;;;;;;;;4464337;32;20048;-78
2022/04/14 13:39:41;;;;;;;7.57;5.12;;;;;;;;;;4460320;32;20021;-79
2022/04/14 13:42:06;;;;;;;8.93;5.18;;;;;;;;;;4439885;32;20053;-83
2022/04/14 13:44:31;;;;;;;7.62;4.95;;;;;;;;;;4464342;32;20068;-78
2022/04/14 13:46:57;;;;;;;6.28;4.65;;;;;;;;;;4463379;32;20068;-78
2022/04/14 13:49:22;;;;;;;7.10;3.85;;;;;;;;;;4463893;32;20029;-78
2022/04/14 13:51:47;;;;;;;6.05;3.67;;;;;;;;;;4464401;32;20025;-80
2022/04/14 13:54:13;;;;;;;5.97;3.62;;;;;;;;;;4465217;32;20052;-78
2022/04/14 13:56:38;;;;;;;4.60;3.78;;;;;;;;;;4453649;32;20077;-78
2022/04/14 13:59:03;;;;;;;3.40;3.05;;;;;;;;;;4455088;32;20082;-81
2022/04/14 14:01:28;;;;;;;7.60;4.75;;;;;;;;;;4439107;32;20052;-80
2022/04/14 14:03:53;;;;;;;7.75;4.90;;;;;;;;;;4452900;32;20097;-81
2022/04/14 14:06:19;;;;;;;6.82;5.05;;;;;;;;;;4454505;32;20048;-78
2022/04/14 14:08:44;;;;;;;6.50;5.10;;;;;;;;;;4452672;32;20034;-79
2022/04/14 14:11:09;;;;;;;9.23;6.40;;;;;;;;;;4452940;32;20064;-81
2022/04/14 14:13:34;;;;;;;7.10;5.55;;;;;;;;;;4453288;32;20030;-81
2022/04/14 14:16:00;;;;;;;7.40;5.78;;;;;;;;;;4454245;32;20074;-81
2022/04/14 14:18:25;;;;;;;7.20;6.18;;;;;;;;;;4452671;32;20029;-80
2022/04/14 14:20:50;;;;;;;7.93;5.53;;;;;;;;;;4453572;32;20044;-82
2022/04/14 14:23:16;;;;;;;6.87;5.70;;;;;;;;;;4453839;32;20029;-82
2022/04/14 14:25:43;;;;;;;7.70;4.90;;;;;;;;;;4453719;32;20386;-83
2022/04/14 14:28:08;;;;;;;7.72;4.93;;;;;;;;;;4452464;32;20073;-79
2022/04/14 14:30:33;;;;;;;9.52;6.80;;;;;;;;;;4452586;32;20418;-78
2022/04/14 14:32:59;;;;;;;7.65;6.60;;;;;;;;;;4452793;32;20037;-82
2022/04/14 14:35:26;;;;;;;8.98;6.22;;;;;;;;;;4452602;32;20081;-79
2022/04/14 14:37:51;;;;;;;12.57;8.02;;;;;;;;;;4452918;32;20422;-81
2022/04/14 14:40:16;;;;;;;7.90;6.13;;;;;;;;;;4451915;32;20088;-79
2022/04/14 14:42:42;;;;;;;10.98;6.55;;;;;;;;;;4452983;32;20120;-83
2022/04/14 14:45:08;;;;;;;12.75;7.68;;;;;;;;;;4452349;32;20171;-82
2022/04/14 14:47:38;;;;;;;10.88;7.57;;;;;;;;;;4452283;32;20048;-84
2022/04/14 14:50:04;;;;;;;8.75;6.72;;;;;;;;;;4453142;32;20037;-78
2022/04/14 14:52:30;;;;;;;10.75;8.57;;;;;;;;;;4452292;32;20021;-78
2022/04/14 14:54:55;;;;;;;13.70;7.15;;;;;;;;;;4452563;32;20026;-80
2022/04/14 14:59:12;;;;;;;12.05;7.50;;;;;;;;;;4438335;32;20047;-78
2022/04/14 15:00:06;;;;;;;12.00;7.40;;;;;;;;;;4452262;32;20036;-78
2022/04/14 15:02:31;;;;;;;11.88;8.80;;;;;;;;;;4452392;32;20082;-78
2022/04/14 15:04:57;;;;;;;10.73;7.60;;;;;;;;;;4451482;32;20069;-79
2022/04/14 15:07:23;;;;;;;10.93;8.45;;;;;;;;;;4449983;32;20354;-78
2022/04/14 15:09:48;;;;;;;12.10;7.80;;;;;;;;;;4452539;32;20312;-80
2022/04/14 15:12:13;;;;;;;12.00;7.20;;;;;;;;;;4452829;32;20051;-80
2022/04/14 15:14:38;;;;;;;10.77;8.20;;;;;;;;;;4452145;32;20150;-81
2022/04/14 15:17:04;;;;;;;9.90;8.10;;;;;;;;;;4451731;32;20391;-82
2022/04/14 15:19:31;;;;;;;10.00;8.10;;;;;;;;;;4452590;32;20124;-79
2022/04/14 15:21:56;;;;;;;10.88;7.97;;;;;;;;;;4451832;32;20399;-80
2022/04/14 15:24:21;;;;;;;9.55;6.90;;;;;;;;;;4438256;32;20037;-82
2022/04/14 15:26:46;;;;;;;11.83;8.27;;;;;;;;;;4452419;32;20101;-80
2022/04/14 15:29:12;;;;;;;10.60;7.57;;;;;;;;;;4451852;32;20120;-82
2022/04/14 15:31:37;;;;;;;11.83;6.97;;;;;;;;;;4451889;32;20152;-79
2022/04/14 15:34:02;;;;;;;12.43;7.43;;;;;;;;;;4452353;32;20231;-83
2022/04/14 15:36:28;;;;;;;12.10;7.62;;;;;;;;;;4453343;32;20120;-78
2022/04/14 15:38:53;;;;;;;10.73;7.97;;;;;;;;;;4451531;32;20371;-83
2022/04/14 15:41:19;;;;;;;11.83;7.77;;;;;;;;;;4451922;32;20017;-81
2022/04/14 15:43:44;;;;;;;13.27;9.73;;;;;;;;;;4451977;32;20170;-81
2022/04/14 15:46:09;;;;;;;11.05;8.52;;;;;;;;;;4451503;32;20104;-79
2022/04/14 15:48:35;;;;;;;12.65;8.48;;;;;;;;;;4451759;32;20025;-79
2022/04/14 15:51:01;;;;;;;11.45;9.10;;;;;;;;;;4452062;32;20052;-81